sensor_id;sensor_type;location;lat;lon;timestamp;P1;durP1;ratioP1;P2;durP2;ratioP2
57465;SDS011;67033;44.984;20.068;2023-03-12T00:00:40;4.03;;;2.13;;
57465;SDS011;67033;44.984;20.068;2023-03-12T00:03:06;3.70;;;2.88;;
57465;SDS011;67033;44.984;20.068;2023-03-12T00:05:34;4.88;;;1.75;;
57465;SDS011;67033;44.984;20.068;2023-03-12T00:08:01;3.35;;;1.90;;
57465;SDS011;67033;44.984;20.068;2023-03-12T00:10:28;5.70;;;2.20;;
57465;SDS011;67033;44.984;20.068;2023-03-12T00:12:55;4.85;;;2.15;;
57465;SDS011;67033;44.984;20.068;2023-03-12T00:15:21;3.85;;;1.90;;
57465;SDS011;67033;44.984;20.068;2023-03-12T00:17:47;2.30;;;1.98;;
57465;SDS011;67033;44.984;20.068;2023-03-12T00:20:14;3.75;;;2.28;;
57465;SDS011;67033;44.984;20.068;2023-03-12T00:22:40;5.28;;;2.05;;
57465;SDS011;67033;44.984;20.068;2023-03-12T00:25:07;7.03;;;2.40;;
57465;SDS011;67033;44.984;20.068;2023-03-12T00:27:35;6.65;;;3.03;;
57465;SDS011;67033;44.984;20.068;2023-03-12T00:30:02;4.53;;;2.60;;
57465;SDS011;67033;44.984;20.068;2023-03-12T00:32:31;4.95;;;2.72;;
57465;SDS011;67033;44.984;20.068;2023-03-12T00:34:57;6.15;;;2.78;;
57465;SDS011;67033;44.984;20.068;2023-03-12T00:37:23;8.27;;;3.70;;
57465;SDS011;67033;44.984;20.068;2023-03-12T00:39:49;7.50;;;3.50;;
57465;SDS011;67033;44.984;20.068;2023-03-12T00:42:15;6.88;;;3.88;;
57465;SDS011;67033;44.984;20.068;2023-03-12T00:44:41;9.55;;;4.10;;
57465;SDS011;67033;44.984;20.068;2023-03-12T00:47:08;6.65;;;3.22;;
57465;SDS011;67033;44.984;20.068;2023-03-12T00:49:34;8.43;;;3.88;;
57465;SDS011;67033;44.984;20.068;2023-03-12T00:52:01;7.57;;;3.67;;
57465;SDS011;67033;44.984;20.068;2023-03-12T00:54:27;7.22;;;3.28;;
57465;SDS011;67033;44.984;20.068;2023-03-12T00:56:53;3.80;;;2.80;;
57465;SDS011;67033;44.984;20.068;2023-03-12T00:59:19;6.15;;;2.70;;
57465;SDS011;67033;44.984;20.068;2023-03-12T01:01:45;5.28;;;3.35;;
57465;SDS011;67033;44.984;20.068;2023-03-12T01:04:11;4.38;;;2.70;;
57465;SDS011;67033;44.984;20.068;2023-03-12T01:06:38;5.10;;;2.80;;
57465;SDS011;67033;44.984;20.068;2023-03-12T01:09:04;5.43;;;2.85;;
57465;SDS011;67033;44.984;20.068;2023-03-12T01:11:31;5.50;;;2.72;;
57465;SDS011;67033;44.984;20.068;2023-03-12T01:13:58;3.72;;;2.40;;
57465;SDS011;67033;44.984;20.068;2023-03-12T01:16:28;3.72;;;2.53;;
57465;SDS011;67033;44.984;20.068;2023-03-12T01:18:55;3.80;;;2.08;;
57465;SDS011;67033;44.984;20.068;2023-03-12T01:21:22;8.23;;;2.78;;
57465;SDS011;67033;44.984;20.068;2023-03-12T01:23:48;4.18;;;2.75;;
57465;SDS011;67033;44.984;20.068;2023-03-12T01:26:15;6.03;;;2.80;;
57465;SDS011;67033;44.984;20.068;2023-03-12T01:28:41;8.05;;;3.72;;
57465;SDS011;67033;44.984;20.068;2023-03-12T01:31:08;12.00;;;4.10;;
57465;SDS011;67033;44.984;20.068;2023-03-12T01:33:35;7.50;;;3.80;;
57465;SDS011;67033;44.984;20.068;2023-03-12T01:36:01;6.00;;;2.70;;
57465;SDS011;67033;44.984;20.068;2023-03-12T01:38:27;4.88;;;2.95;;
57465;SDS011;67033;44.984;20.068;2023-03-12T01:40:53;3.67;;;2.08;;
57465;SDS011;67033;44.984;20.068;2023-03-12T01:43:24;3.67;;;2.25;;
57465;SDS011;67033;44.984;20.068;2023-03-12T01:48:23;4.03;;;2.20;;
57465;SDS011;67033;44.984;20.068;2023-03-12T01:50:50;3.88;;;2.30;;
57465;SDS011;67033;44.984;20.068;2023-03-12T01:53:16;3.63;;;2.55;;
57465;SDS011;67033;44.984;20.068;2023-03-12T01:55:43;3.72;;;2.05;;
57465;SDS011;67033;44.984;20.068;2023-03-12T01:58:09;3.55;;;2.38;;
57465;SDS011;67033;44.984;20.068;2023-03-12T02:00:35;3.40;;;2.33;;
57465;SDS011;67033;44.984;20.068;2023-03-12T02:03:05;4.20;;;2.65;;
57465;SDS011;67033;44.984;20.068;2023-03-12T02:05:33;3.65;;;1.98;;
57465;SDS011;67033;44.984;20.068;2023-03-12T02:08:03;6.82;;;2.75;;
57465;SDS011;67033;44.984;20.068;2023-03-12T02:10:29;4.05;;;2.30;;
57465;SDS011;67033;44.984;20.068;2023-03-12T02:12:55;3.53;;;2.40;;
57465;SDS011;67033;44.984;20.068;2023-03-12T02:15:22;4.93;;;2.72;;
57465;SDS011;67033;44.984;20.068;2023-03-12T02:17:48;5.45;;;2.53;;
57465;SDS011;67033;44.984;20.068;2023-03-12T02:20:16;5.70;;;2.65;;
57465;SDS011;67033;44.984;20.068;2023-03-12T02:22:46;7.45;;;3.28;;
57465;SDS011;67033;44.984;20.068;2023-03-12T02:27:43;5.10;;;2.70;;
57465;SDS011;67033;44.984;20.068;2023-03-12T02:30:10;4.80;;;2.53;;
57465;SDS011;67033;44.984;20.068;2023-03-12T02:32:40;3.42;;;2.70;;
57465;SDS011;67033;44.984;20.068;2023-03-12T02:35:07;4.18;;;2.40;;
57465;SDS011;67033;44.984;20.068;2023-03-12T02:37:33;3.85;;;2.28;;
57465;SDS011;67033;44.984;20.068;2023-03-12T02:40:12;4.55;;;2.80;;
57465;SDS011;67033;44.984;20.068;2023-03-12T02:42:40;3.70;;;2.75;;
57465;SDS011;67033;44.984;20.068;2023-03-12T02:45:06;3.33;;;2.70;;
57465;SDS011;67033;44.984;20.068;2023-03-12T02:47:32;3.33;;;2.55;;
57465;SDS011;67033;44.984;20.068;2023-03-12T02:49:59;7.93;;;2.70;;
57465;SDS011;67033;44.984;20.068;2023-03-12T02:52:25;3.75;;;2.55;;
57465;SDS011;67033;44.984;20.068;2023-03-12T02:54:51;3.05;;;2.75;;
57465;SDS011;67033;44.984;20.068;2023-03-12T02:57:17;3.60;;;2.70;;
57465;SDS011;67033;44.984;20.068;2023-03-12T02:59:44;4.15;;;2.67;;
57465;SDS011;67033;44.984;20.068;2023-03-12T03:02:10;4.60;;;2.70;;
57465;SDS011;67033;44.984;20.068;2023-03-12T03:04:37;3.78;;;3.05;;
57465;SDS011;67033;44.984;20.068;2023-03-12T03:07:03;6.32;;;2.90;;
57465;SDS011;67033;44.984;20.068;2023-03-12T03:09:29;4.25;;;2.47;;
57465;SDS011;67033;44.984;20.068;2023-03-12T03:11:56;4.40;;;2.63;;
57465;SDS011;67033;44.984;20.068;2023-03-12T03:14:22;3.67;;;2.42;;
57465;SDS011;67033;44.984;20.068;2023-03-12T03:16:48;2.92;;;2.35;;
57465;SDS011;67033;44.984;20.068;2023-03-12T03:19:15;4.97;;;2.55;;
57465;SDS011;67033;44.984;20.068;2023-03-12T03:21:41;4.05;;;2.70;;
57465;SDS011;67033;44.984;20.068;2023-03-12T03:24:08;4.47;;;2.70;;
57465;SDS011;67033;44.984;20.068;2023-03-12T03:26:34;3.92;;;2.63;;
57465;SDS011;67033;44.984;20.068;2023-03-12T03:29:00;3.08;;;2.33;;
57465;SDS011;67033;44.984;20.068;2023-03-12T03:31:26;4.25;;;2.70;;
57465;SDS011;67033;44.984;20.068;2023-03-12T03:33:52;3.75;;;2.65;;
57465;SDS011;67033;44.984;20.068;2023-03-12T03:36:19;4.78;;;2.85;;
57465;SDS011;67033;44.984;20.068;2023-03-12T03:38:47;5.00;;;2.42;;
57465;SDS011;67033;44.984;20.068;2023-03-12T03:41:15;3.90;;;3.10;;
57465;SDS011;67033;44.984;20.068;2023-03-12T03:43:41;5.18;;;3.15;;
57465;SDS011;67033;44.984;20.068;2023-03-12T03:46:09;4.22;;;3.00;;
57465;SDS011;67033;44.984;20.068;2023-03-12T03:48:36;4.88;;;3.60;;
57465;SDS011;67033;44.984;20.068;2023-03-12T03:51:03;4.85;;;2.58;;
57465;SDS011;67033;44.984;20.068;2023-03-12T03:53:29;4.35;;;2.72;;
57465;SDS011;67033;44.984;20.068;2023-03-12T03:55:56;5.47;;;2.90;;
57465;SDS011;67033;44.984;20.068;2023-03-12T03:58:22;3.58;;;2.83;;
57465;SDS011;67033;44.984;20.068;2023-03-12T04:00:49;4.30;;;3.03;;
57465;SDS011;67033;44.984;20.068;2023-03-12T04:03:15;4.30;;;2.95;;
57465;SDS011;67033;44.984;20.068;2023-03-12T04:05:41;5.00;;;3.05;;
57465;SDS011;67033;44.984;20.068;2023-03-12T04:08:11;3.65;;;2.30;;
57465;SDS011;67033;44.984;20.068;2023-03-12T04:10:38;5.13;;;3.17;;
57465;SDS011;67033;44.984;20.068;2023-03-12T04:13:04;5.53;;;3.00;;
57465;SDS011;67033;44.984;20.068;2023-03-12T04:15:30;5.78;;;3.03;;
57465;SDS011;67033;44.984;20.068;2023-03-12T04:17:56;5.53;;;3.33;;
57465;SDS011;67033;44.984;20.068;2023-03-12T04:20:22;4.65;;;3.78;;
57465;SDS011;67033;44.984;20.068;2023-03-12T04:22:49;4.53;;;3.28;;
57465;SDS011;67033;44.984;20.068;2023-03-12T04:25:15;4.45;;;3.13;;
57465;SDS011;67033;44.984;20.068;2023-03-12T04:27:42;4.68;;;3.30;;
57465;SDS011;67033;44.984;20.068;2023-03-12T04:30:08;4.68;;;3.20;;
57465;SDS011;67033;44.984;20.068;2023-03-12T04:32:34;4.57;;;3.25;;
57465;SDS011;67033;44.984;20.068;2023-03-12T04:35:00;4.32;;;3.28;;
57465;SDS011;67033;44.984;20.068;2023-03-12T04:37:26;4.93;;;3.08;;
57465;SDS011;67033;44.984;20.068;2023-03-12T04:39:53;4.78;;;3.20;;
57465;SDS011;67033;44.984;20.068;2023-03-12T04:42:19;6.85;;;3.60;;
57465;SDS011;67033;44.984;20.068;2023-03-12T04:44:45;6.57;;;4.05;;
57465;SDS011;67033;44.984;20.068;2023-03-12T04:47:11;8.68;;;4.18;;
57465;SDS011;67033;44.984;20.068;2023-03-12T04:49:38;6.60;;;4.03;;
57465;SDS011;67033;44.984;20.068;2023-03-12T04:52:04;6.22;;;3.83;;
57465;SDS011;67033;44.984;20.068;2023-03-12T04:54:30;5.82;;;4.05;;
57465;SDS011;67033;44.984;20.068;2023-03-12T04:56:57;6.47;;;3.60;;
57465;SDS011;67033;44.984;20.068;2023-03-12T04:59:23;5.57;;;3.53;;
57465;SDS011;67033;44.984;20.068;2023-03-12T05:01:50;6.07;;;3.35;;
57465;SDS011;67033;44.984;20.068;2023-03-12T05:04:16;4.35;;;2.92;;
57465;SDS011;67033;44.984;20.068;2023-03-12T05:06:42;4.80;;;3.03;;
57465;SDS011;67033;44.984;20.068;2023-03-12T05:09:08;3.45;;;2.88;;
57465;SDS011;67033;44.984;20.068;2023-03-12T05:11:34;5.10;;;3.30;;
57465;SDS011;67033;44.984;20.068;2023-03-12T05:14:00;5.20;;;3.00;;
57465;SDS011;67033;44.984;20.068;2023-03-12T05:16:27;4.47;;;2.70;;
57465;SDS011;67033;44.984;20.068;2023-03-12T05:18:53;4.63;;;3.25;;
57465;SDS011;67033;44.984;20.068;2023-03-12T05:21:20;3.38;;;2.72;;
57465;SDS011;67033;44.984;20.068;2023-03-12T05:23:46;4.75;;;3.45;;
57465;SDS011;67033;44.984;20.068;2023-03-12T05:26:20;6.10;;;3.42;;
57465;SDS011;67033;44.984;20.068;2023-03-12T05:28:46;3.60;;;2.95;;
57465;SDS011;67033;44.984;20.068;2023-03-12T05:31:13;6.22;;;3.42;;
57465;SDS011;67033;44.984;20.068;2023-03-12T05:33:40;6.22;;;3.35;;
57465;SDS011;67033;44.984;20.068;2023-03-12T05:36:06;4.13;;;3.42;;
57465;SDS011;67033;44.984;20.068;2023-03-12T05:38:32;6.97;;;3.50;;
57465;SDS011;67033;44.984;20.068;2023-03-12T05:40:59;8.63;;;3.95;;
57465;SDS011;67033;44.984;20.068;2023-03-12T05:43:25;5.80;;;3.50;;
57465;SDS011;67033;44.984;20.068;2023-03-12T05:45:52;5.57;;;3.08;;
57465;SDS011;67033;44.984;20.068;2023-03-12T05:48:18;5.05;;;3.45;;
57465;SDS011;67033;44.984;20.068;2023-03-12T05:50:45;6.57;;;3.28;;
57465;SDS011;67033;44.984;20.068;2023-03-12T05:53:11;5.65;;;3.72;;
57465;SDS011;67033;44.984;20.068;2023-03-12T05:55:37;4.28;;;3.25;;
57465;SDS011;67033;44.984;20.068;2023-03-12T05:58:05;5.65;;;3.53;;
57465;SDS011;67033;44.984;20.068;2023-03-12T06:00:32;4.57;;;3.40;;
57465;SDS011;67033;44.984;20.068;2023-03-12T06:03:06;5.55;;;3.47;;
57465;SDS011;67033;44.984;20.068;2023-03-12T06:07:58;4.22;;;3.30;;
57465;SDS011;67033;44.984;20.068;2023-03-12T06:10:25;8.68;;;3.90;;
57465;SDS011;67033;44.984;20.068;2023-03-12T06:12:51;14.10;;;6.53;;
57465;SDS011;67033;44.984;20.068;2023-03-12T06:15:17;15.55;;;7.28;;
57465;SDS011;67033;44.984;20.068;2023-03-12T06:17:43;8.38;;;5.32;;
57465;SDS011;67033;44.984;20.068;2023-03-12T06:20:10;6.95;;;4.82;;
57465;SDS011;67033;44.984;20.068;2023-03-12T06:22:36;5.18;;;4.28;;
57465;SDS011;67033;44.984;20.068;2023-03-12T06:25:03;13.30;;;4.50;;
57465;SDS011;67033;44.984;20.068;2023-03-12T06:27:29;6.32;;;3.95;;
57465;SDS011;67033;44.984;20.068;2023-03-12T06:29:55;7.05;;;3.92;;
57465;SDS011;67033;44.984;20.068;2023-03-12T06:32:22;7.28;;;4.22;;
57465;SDS011;67033;44.984;20.068;2023-03-12T06:34:48;6.55;;;3.35;;
57465;SDS011;67033;44.984;20.068;2023-03-12T06:37:14;5.78;;;3.72;;
57465;SDS011;67033;44.984;20.068;2023-03-12T06:39:41;4.80;;;3.83;;
57465;SDS011;67033;44.984;20.068;2023-03-12T06:42:07;5.20;;;3.35;;
57465;SDS011;67033;44.984;20.068;2023-03-12T06:44:34;7.07;;;4.03;;
57465;SDS011;67033;44.984;20.068;2023-03-12T06:47:00;7.38;;;3.78;;
57465;SDS011;67033;44.984;20.068;2023-03-12T06:49:26;6.43;;;3.80;;
57465;SDS011;67033;44.984;20.068;2023-03-12T06:51:56;4.90;;;4.38;;
57465;SDS011;67033;44.984;20.068;2023-03-12T06:54:22;4.70;;;3.20;;
57465;SDS011;67033;44.984;20.068;2023-03-12T06:56:48;6.45;;;3.80;;
57465;SDS011;67033;44.984;20.068;2023-03-12T06:59:14;5.07;;;3.88;;
57465;SDS011;67033;44.984;20.068;2023-03-12T07:01:42;6.75;;;4.10;;
57465;SDS011;67033;44.984;20.068;2023-03-12T07:04:08;4.88;;;4.05;;
57465;SDS011;67033;44.984;20.068;2023-03-12T07:06:34;5.53;;;3.63;;
57465;SDS011;67033;44.984;20.068;2023-03-12T07:09:01;5.47;;;3.60;;
57465;SDS011;67033;44.984;20.068;2023-03-12T07:11:27;5.55;;;4.00;;
57465;SDS011;67033;44.984;20.068;2023-03-12T07:13:53;6.03;;;3.70;;
57465;SDS011;67033;44.984;20.068;2023-03-12T07:16:19;5.57;;;4.22;;
57465;SDS011;67033;44.984;20.068;2023-03-12T07:18:45;5.38;;;3.53;;
57465;SDS011;67033;44.984;20.068;2023-03-12T07:21:12;7.57;;;4.10;;
57465;SDS011;67033;44.984;20.068;2023-03-12T07:23:40;5.97;;;3.90;;
57465;SDS011;67033;44.984;20.068;2023-03-12T07:26:06;6.97;;;4.03;;
57465;SDS011;67033;44.984;20.068;2023-03-12T07:28:33;6.13;;;3.78;;
57465;SDS011;67033;44.984;20.068;2023-03-12T07:31:00;4.90;;;3.63;;
57465;SDS011;67033;44.984;20.068;2023-03-12T07:33:26;5.28;;;4.20;;
57465;SDS011;67033;44.984;20.068;2023-03-12T07:35:53;5.22;;;4.00;;
57465;SDS011;67033;44.984;20.068;2023-03-12T07:38:19;5.82;;;3.65;;
57465;SDS011;67033;44.984;20.068;2023-03-12T07:40:51;7.55;;;4.20;;
57465;SDS011;67033;44.984;20.068;2023-03-12T07:43:18;8.75;;;5.60;;
57465;SDS011;67033;44.984;20.068;2023-03-12T07:45:44;7.38;;;4.35;;
57465;SDS011;67033;44.984;20.068;2023-03-12T07:48:11;6.63;;;3.60;;
57465;SDS011;67033;44.984;20.068;2023-03-12T07:50:37;49.80;;;27.73;;
57465;SDS011;67033;44.984;20.068;2023-03-12T07:53:04;18.35;;;11.55;;
57465;SDS011;67033;44.984;20.068;2023-03-12T07:55:31;6.82;;;4.22;;
57465;SDS011;67033;44.984;20.068;2023-03-12T07:57:57;5.70;;;4.03;;
57465;SDS011;67033;44.984;20.068;2023-03-12T08:00:23;5.13;;;3.92;;
57465;SDS011;67033;44.984;20.068;2023-03-12T08:02:50;31.60;;;18.83;;
57465;SDS011;67033;44.984;20.068;2023-03-12T08:05:16;34.40;;;20.65;;
57465;SDS011;67033;44.984;20.068;2023-03-12T08:07:43;6.13;;;3.88;;
57465;SDS011;67033;44.984;20.068;2023-03-12T08:10:09;6.30;;;4.65;;
57465;SDS011;67033;44.984;20.068;2023-03-12T08:12:36;6.25;;;4.20;;
57465;SDS011;67033;44.984;20.068;2023-03-12T08:15:03;6.53;;;3.60;;
57465;SDS011;67033;44.984;20.068;2023-03-12T08:17:29;6.82;;;3.95;;
57465;SDS011;67033;44.984;20.068;2023-03-12T08:19:55;6.05;;;4.25;;
57465;SDS011;67033;44.984;20.068;2023-03-12T08:22:21;7.40;;;4.70;;
57465;SDS011;67033;44.984;20.068;2023-03-12T08:24:48;30.17;;;9.32;;
57465;SDS011;67033;44.984;20.068;2023-03-12T08:27:14;6.72;;;4.45;;
57465;SDS011;67033;44.984;20.068;2023-03-12T08:29:40;10.45;;;6.30;;
57465;SDS011;67033;44.984;20.068;2023-03-12T08:32:07;15.43;;;8.05;;
57465;SDS011;67033;44.984;20.068;2023-03-12T08:34:34;7.57;;;5.10;;
57465;SDS011;67033;44.984;20.068;2023-03-12T08:37:01;6.05;;;4.00;;
57465;SDS011;67033;44.984;20.068;2023-03-12T08:39:28;6.82;;;4.40;;
57465;SDS011;67033;44.984;20.068;2023-03-12T08:41:54;6.68;;;3.80;;
57465;SDS011;67033;44.984;20.068;2023-03-12T08:44:21;8.63;;;4.10;;
57465;SDS011;67033;44.984;20.068;2023-03-12T08:46:47;4.13;;;3.17;;
57465;SDS011;67033;44.984;20.068;2023-03-12T08:49:14;7.20;;;4.07;;
57465;SDS011;67033;44.984;20.068;2023-03-12T08:51:40;5.13;;;3.22;;
57465;SDS011;67033;44.984;20.068;2023-03-12T08:54:06;5.55;;;3.70;;
57465;SDS011;67033;44.984;20.068;2023-03-12T08:56:33;5.10;;;3.40;;
57465;SDS011;67033;44.984;20.068;2023-03-12T08:59:07;3.45;;;2.47;;
57465;SDS011;67033;44.984;20.068;2023-03-12T09:01:33;5.70;;;3.35;;
57465;SDS011;67033;44.984;20.068;2023-03-12T09:03:59;8.05;;;4.05;;
57465;SDS011;67033;44.984;20.068;2023-03-12T09:06:26;5.60;;;3.70;;
57465;SDS011;67033;44.984;20.068;2023-03-12T09:08:52;7.25;;;4.18;;
57465;SDS011;67033;44.984;20.068;2023-03-12T09:11:19;6.55;;;3.58;;
57465;SDS011;67033;44.984;20.068;2023-03-12T09:13:45;7.43;;;3.90;;
57465;SDS011;67033;44.984;20.068;2023-03-12T09:16:11;7.35;;;4.10;;
57465;SDS011;67033;44.984;20.068;2023-03-12T09:18:37;5.55;;;4.15;;
57465;SDS011;67033;44.984;20.068;2023-03-12T09:21:04;6.68;;;4.30;;
57465;SDS011;67033;44.984;20.068;2023-03-12T09:23:31;4.93;;;3.78;;
57465;SDS011;67033;44.984;20.068;2023-03-12T09:25:57;4.35;;;3.40;;
57465;SDS011;67033;44.984;20.068;2023-03-12T09:28:23;4.70;;;3.55;;
57465;SDS011;67033;44.984;20.068;2023-03-12T09:30:49;5.68;;;3.85;;
57465;SDS011;67033;44.984;20.068;2023-03-12T09:33:16;6.38;;;4.45;;
57465;SDS011;67033;44.984;20.068;2023-03-12T09:35:42;6.47;;;4.13;;
57465;SDS011;67033;44.984;20.068;2023-03-12T09:38:15;4.85;;;3.90;;
57465;SDS011;67033;44.984;20.068;2023-03-12T09:40:42;5.00;;;3.75;;
57465;SDS011;67033;44.984;20.068;2023-03-12T09:43:28;6.47;;;3.78;;
57465;SDS011;67033;44.984;20.068;2023-03-12T09:45:57;4.63;;;4.00;;
57465;SDS011;67033;44.984;20.068;2023-03-12T09:48:36;6.10;;;3.65;;
57465;SDS011;67033;44.984;20.068;2023-03-12T09:51:06;4.82;;;3.63;;
57465;SDS011;67033;44.984;20.068;2023-03-12T09:53:36;5.70;;;3.90;;
57465;SDS011;67033;44.984;20.068;2023-03-12T09:56:08;6.55;;;4.05;;
57465;SDS011;67033;44.984;20.068;2023-03-12T09:58:35;6.55;;;4.10;;
57465;SDS011;67033;44.984;20.068;2023-03-12T10:06:11;7.32;;;4.18;;
57465;SDS011;67033;44.984;20.068;2023-03-12T10:13:42;12.63;;;5.50;;
57465;SDS011;67033;44.984;20.068;2023-03-12T10:16:19;6.18;;;4.40;;
57465;SDS011;67033;44.984;20.068;2023-03-12T10:18:59;5.82;;;4.15;;
57465;SDS011;67033;44.984;20.068;2023-03-12T10:21:39;5.85;;;4.22;;
57465;SDS011;67033;44.984;20.068;2023-03-12T10:26:35;7.20;;;4.32;;
57465;SDS011;67033;44.984;20.068;2023-03-12T10:29:15;4.38;;;3.72;;
57465;SDS011;67033;44.984;20.068;2023-03-12T10:34:16;11.00;;;4.25;;
57465;SDS011;67033;44.984;20.068;2023-03-12T10:36:43;5.05;;;3.63;;
57465;SDS011;67033;44.984;20.068;2023-03-12T10:39:14;5.28;;;3.85;;
57465;SDS011;67033;44.984;20.068;2023-03-12T10:41:41;5.15;;;3.92;;
57465;SDS011;67033;44.984;20.068;2023-03-12T10:44:08;6.60;;;3.83;;
57465;SDS011;67033;44.984;20.068;2023-03-12T10:46:41;4.85;;;3.70;;
57465;SDS011;67033;44.984;20.068;2023-03-12T10:54:29;3.90;;;3.42;;
57465;SDS011;67033;44.984;20.068;2023-03-12T10:56:55;4.78;;;3.55;;
57465;SDS011;67033;44.984;20.068;2023-03-12T10:59:24;5.40;;;3.95;;
57465;SDS011;67033;44.984;20.068;2023-03-12T11:01:51;7.82;;;4.65;;
57465;SDS011;67033;44.984;20.068;2023-03-12T11:04:18;4.88;;;4.00;;
57465;SDS011;67033;44.984;20.068;2023-03-12T11:07:03;5.28;;;4.03;;
57465;SDS011;67033;44.984;20.068;2023-03-12T11:09:30;8.07;;;3.80;;
57465;SDS011;67033;44.984;20.068;2023-03-12T11:11:56;7.15;;;3.95;;
57465;SDS011;67033;44.984;20.068;2023-03-12T11:14:26;6.03;;;4.30;;
57465;SDS011;67033;44.984;20.068;2023-03-12T11:16:53;9.57;;;5.15;;
57465;SDS011;67033;44.984;20.068;2023-03-12T11:19:29;7.38;;;4.22;;
57465;SDS011;67033;44.984;20.068;2023-03-12T11:21:57;12.63;;;5.00;;
57465;SDS011;67033;44.984;20.068;2023-03-12T11:24:23;9.10;;;4.40;;
57465;SDS011;67033;44.984;20.068;2023-03-12T11:34:36;4.88;;;3.55;;
57465;SDS011;67033;44.984;20.068;2023-03-12T11:50:02;6.63;;;3.65;;
57465;SDS011;67033;44.984;20.068;2023-03-12T11:52:46;8.20;;;4.15;;
57465;SDS011;67033;44.984;20.068;2023-03-12T11:58:15;4.80;;;3.60;;
57465;SDS011;67033;44.984;20.068;2023-03-12T12:00:51;6.03;;;3.83;;
57465;SDS011;67033;44.984;20.068;2023-03-12T12:05:59;6.90;;;4.15;;
57465;SDS011;67033;44.984;20.068;2023-03-12T12:11:09;6.82;;;4.18;;
57465;SDS011;67033;44.984;20.068;2023-03-12T12:16:34;9.93;;;4.75;;
57465;SDS011;67033;44.984;20.068;2023-03-12T12:29:18;6.40;;;4.40;;
57465;SDS011;67033;44.984;20.068;2023-03-12T12:31:56;5.50;;;4.20;;
57465;SDS011;67033;44.984;20.068;2023-03-12T12:39:40;5.00;;;3.47;;
57465;SDS011;67033;44.984;20.068;2023-03-12T12:42:09;4.50;;;3.75;;
57465;SDS011;67033;44.984;20.068;2023-03-12T12:44:42;4.32;;;3.53;;
57465;SDS011;67033;44.984;20.068;2023-03-12T12:47:10;5.18;;;3.53;;
57465;SDS011;67033;44.984;20.068;2023-03-12T12:52:07;6.20;;;4.03;;
57465;SDS011;67033;44.984;20.068;2023-03-12T12:54:36;4.28;;;3.85;;
57465;SDS011;67033;44.984;20.068;2023-03-12T13:02:43;4.80;;;3.75;;
57465;SDS011;67033;44.984;20.068;2023-03-12T13:05:01;5.93;;;3.55;;
57465;SDS011;67033;44.984;20.068;2023-03-12T13:07:29;4.45;;;3.15;;
57465;SDS011;67033;44.984;20.068;2023-03-12T13:09:56;3.63;;;3.05;;
57465;SDS011;67033;44.984;20.068;2023-03-12T13:14:52;5.18;;;3.45;;
57465;SDS011;67033;44.984;20.068;2023-03-12T13:17:29;4.15;;;3.42;;
57465;SDS011;67033;44.984;20.068;2023-03-12T13:19:58;4.55;;;3.88;;
57465;SDS011;67033;44.984;20.068;2023-03-12T13:25:10;5.13;;;3.60;;
57465;SDS011;67033;44.984;20.068;2023-03-12T13:27:41;6.22;;;3.47;;
57465;SDS011;67033;44.984;20.068;2023-03-12T13:45:27;3.65;;;3.08;;
57465;SDS011;67033;44.984;20.068;2023-03-12T13:47:57;3.65;;;3.30;;
57465;SDS011;67033;44.984;20.068;2023-03-12T13:50:24;5.28;;;3.92;;
57465;SDS011;67033;44.984;20.068;2023-03-12T13:53:13;5.50;;;3.45;;
57465;SDS011;67033;44.984;20.068;2023-03-12T13:55:39;3.20;;;2.88;;
57465;SDS011;67033;44.984;20.068;2023-03-12T13:58:15;4.15;;;2.97;;
57465;SDS011;67033;44.984;20.068;2023-03-12T14:00:53;4.68;;;3.75;;
57465;SDS011;67033;44.984;20.068;2023-03-12T14:03:22;3.83;;;3.42;;
57465;SDS011;67033;44.984;20.068;2023-03-12T14:05:52;5.65;;;3.60;;
57465;SDS011;67033;44.984;20.068;2023-03-12T14:16:43;4.80;;;3.65;;
57465;SDS011;67033;44.984;20.068;2023-03-12T14:19:11;6.22;;;4.30;;
57465;SDS011;67033;44.984;20.068;2023-03-12T14:21:38;6.03;;;3.92;;
57465;SDS011;67033;44.984;20.068;2023-03-12T14:24:06;4.07;;;3.63;;
57465;SDS011;67033;44.984;20.068;2023-03-12T14:31:42;4.57;;;3.47;;
57465;SDS011;67033;44.984;20.068;2023-03-12T14:34:15;8.40;;;2.97;;
57465;SDS011;67033;44.984;20.068;2023-03-12T14:41:52;5.65;;;3.35;;
57465;SDS011;67033;44.984;20.068;2023-03-12T14:44:21;7.82;;;4.10;;
57465;SDS011;67033;44.984;20.068;2023-03-12T14:46:57;4.40;;;3.65;;
57465;SDS011;67033;44.984;20.068;2023-03-12T14:49:24;4.00;;;3.22;;
57465;SDS011;67033;44.984;20.068;2023-03-12T14:51:50;4.47;;;3.78;;
57465;SDS011;67033;44.984;20.068;2023-03-12T14:54:17;6.03;;;5.10;;
57465;SDS011;67033;44.984;20.068;2023-03-12T14:56:44;6.43;;;4.68;;
57465;SDS011;67033;44.984;20.068;2023-03-12T14:59:20;4.68;;;3.88;;
57465;SDS011;67033;44.984;20.068;2023-03-12T15:01:47;3.67;;;3.30;;
57465;SDS011;67033;44.984;20.068;2023-03-12T15:04:14;7.60;;;4.72;;
57465;SDS011;67033;44.984;20.068;2023-03-12T15:06:43;12.10;;;7.73;;
57465;SDS011;67033;44.984;20.068;2023-03-12T15:09:13;6.75;;;5.10;;
57465;SDS011;67033;44.984;20.068;2023-03-12T15:11:41;8.77;;;3.97;;
57465;SDS011;67033;44.984;20.068;2023-03-12T15:14:08;6.97;;;4.93;;
57465;SDS011;67033;44.984;20.068;2023-03-12T15:16:38;5.53;;;3.47;;
57465;SDS011;67033;44.984;20.068;2023-03-12T15:19:05;5.18;;;3.58;;
57465;SDS011;67033;44.984;20.068;2023-03-12T15:21:32;8.95;;;5.28;;
57465;SDS011;67033;44.984;20.068;2023-03-12T15:23:59;9.23;;;4.03;;
57465;SDS011;67033;44.984;20.068;2023-03-12T15:26:29;6.38;;;4.68;;
57465;SDS011;67033;44.984;20.068;2023-03-12T15:28:58;5.00;;;3.38;;
57465;SDS011;67033;44.984;20.068;2023-03-12T15:31:25;4.82;;;3.50;;
57465;SDS011;67033;44.984;20.068;2023-03-12T15:34:04;9.90;;;3.55;;
57465;SDS011;67033;44.984;20.068;2023-03-12T15:36:31;16.65;;;8.18;;
57465;SDS011;67033;44.984;20.068;2023-03-12T15:41:35;13.93;;;6.55;;
57465;SDS011;67033;44.984;20.068;2023-03-12T15:44:11;5.15;;;4.13;;
57465;SDS011;67033;44.984;20.068;2023-03-12T15:46:39;17.08;;;8.73;;
57465;SDS011;67033;44.984;20.068;2023-03-12T15:49:10;18.05;;;9.02;;
57465;SDS011;67033;44.984;20.068;2023-03-12T15:51:38;6.28;;;4.55;;
57465;SDS011;67033;44.984;20.068;2023-03-12T15:54:05;7.90;;;4.97;;
57465;SDS011;67033;44.984;20.068;2023-03-12T15:56:46;7.47;;;4.63;;
57465;SDS011;67033;44.984;20.068;2023-03-12T16:01:48;10.95;;;6.28;;
57465;SDS011;67033;44.984;20.068;2023-03-12T16:04:15;7.93;;;5.78;;
57465;SDS011;67033;44.984;20.068;2023-03-12T16:06:41;8.88;;;4.57;;
57465;SDS011;67033;44.984;20.068;2023-03-12T16:09:09;8.63;;;4.80;;
57465;SDS011;67033;44.984;20.068;2023-03-12T16:11:40;8.55;;;4.63;;
57465;SDS011;67033;44.984;20.068;2023-03-12T16:14:07;10.13;;;4.93;;
57465;SDS011;67033;44.984;20.068;2023-03-12T16:16:48;13.98;;;7.32;;
57465;SDS011;67033;44.984;20.068;2023-03-12T16:19:16;14.68;;;8.27;;
57465;SDS011;67033;44.984;20.068;2023-03-12T16:21:43;13.75;;;8.13;;
57465;SDS011;67033;44.984;20.068;2023-03-12T16:24:10;11.52;;;7.68;;
57465;SDS011;67033;44.984;20.068;2023-03-12T16:26:37;13.90;;;8.32;;
57465;SDS011;67033;44.984;20.068;2023-03-12T16:29:33;16.50;;;9.35;;
57465;SDS011;67033;44.984;20.068;2023-03-12T16:32:01;17.95;;;10.68;;
57465;SDS011;67033;44.984;20.068;2023-03-12T16:34:33;32.00;;;18.63;;
57465;SDS011;67033;44.984;20.068;2023-03-12T16:36:59;58.40;;;26.65;;
57465;SDS011;67033;44.984;20.068;2023-03-12T16:39:25;58.78;;;25.42;;
57465;SDS011;67033;44.984;20.068;2023-03-12T16:41:54;70.95;;;26.48;;
57465;SDS011;67033;44.984;20.068;2023-03-12T16:44:20;57.50;;;25.58;;